sensor_id;sensor_type;location;lat;lon;timestamp;pressure;altitude;pressure_sealevel;temperature
29423;BMP180;16399;51.686;8.684;2022-07-23T00:02:24;100063.00;;;17.00
29423;BMP180;16399;51.686;8.684;2022-07-23T00:05:26;100074.00;;;16.90
29423;BMP180;16399;51.686;8.684;2022-07-23T00:08:28;100080.00;;;16.90
29423;BMP180;16399;51.686;8.684;2022-07-23T00:11:31;100094.00;;;16.90
29423;BMP180;16399;51.686;8.684;2022-07-23T00:14:33;100088.00;;;16.90
29423;BMP180;16399;51.686;8.684;2022-07-23T00:17:35;100087.00;;;16.90
29423;BMP180;16399;51.686;8.684;2022-07-23T00:20:38;100076.00;;;16.90
29423;BMP180;16399;51.686;8.684;2022-07-23T00:23:40;100060.00;;;16.90
29423;BMP180;16399;51.686;8.684;2022-07-23T00:26:42;100063.00;;;16.90
29423;BMP180;16399;51.686;8.684;2022-07-23T00:29:44;100064.00;;;16.90
29423;BMP180;16399;51.686;8.684;2022-07-23T00:32:49;100062.00;;;16.90
29423;BMP180;16399;51.686;8.684;2022-07-23T00:35:52;100057.00;;;16.90
29423;BMP180;16399;51.686;8.684;2022-07-23T00:38:54;100060.00;;;16.90
29423;BMP180;16399;51.686;8.684;2022-07-23T00:41:57;100056.00;;;16.80
29423;BMP180;16399;51.686;8.684;2022-07-23T00:45:00;100065.00;;;16.70
29423;BMP180;16399;51.686;8.684;2022-07-23T00:48:02;100053.00;;;16.80
29423;BMP180;16399;51.686;8.684;2022-07-23T00:51:04;100057.00;;;16.70
29423;BMP180;16399;51.686;8.684;2022-07-23T00:54:07;100079.00;;;16.70
29423;BMP180;16399;51.686;8.684;2022-07-23T00:57:09;100092.00;;;16.70
29423;BMP180;16399;51.686;8.684;2022-07-23T01:00:13;100083.00;;;16.70
29423;BMP180;16399;51.686;8.684;2022-07-23T01:03:16;100084.00;;;16.60
29423;BMP180;16399;51.686;8.684;2022-07-23T01:06:18;100088.00;;;16.60
29423;BMP180;16399;51.686;8.684;2022-07-23T01:09:21;100102.00;;;16.50
29423;BMP180;16399;51.686;8.684;2022-07-23T01:12:23;100104.00;;;16.50
29423;BMP180;16399;51.686;8.684;2022-07-23T01:15:26;100105.00;;;16.50
29423;BMP180;16399;51.686;8.684;2022-07-23T01:18:28;100104.00;;;16.50
29423;BMP180;16399;51.686;8.684;2022-07-23T01:21:31;100114.00;;;16.50
29423;BMP180;16399;51.686;8.684;2022-07-23T01:24:33;100110.00;;;16.50
29423;BMP180;16399;51.686;8.684;2022-07-23T01:27:36;100107.00;;;16.50
29423;BMP180;16399;51.686;8.684;2022-07-23T01:30:38;100104.00;;;16.50
29423;BMP180;16399;51.686;8.684;2022-07-23T01:33:40;100104.00;;;16.50
29423;BMP180;16399;51.686;8.684;2022-07-23T01:36:42;100099.00;;;16.50
29423;BMP180;16399;51.686;8.684;2022-07-23T01:39:45;100089.00;;;16.50
29423;BMP180;16399;51.686;8.684;2022-07-23T01:42:48;100074.00;;;16.50
29423;BMP180;16399;51.686;8.684;2022-07-23T01:45:50;100077.00;;;16.50
29423;BMP180;16399;51.686;8.684;2022-07-23T01:48:52;100085.00;;;16.50
29423;BMP180;16399;51.686;8.684;2022-07-23T01:51:54;100070.00;;;16.50
29423;BMP180;16399;51.686;8.684;2022-07-23T01:55:03;100073.00;;;16.50
29423;BMP180;16399;51.686;8.684;2022-07-23T01:58:07;100070.00;;;16.60
29423;BMP180;16399;51.686;8.684;2022-07-23T02:01:09;100068.00;;;16.60
29423;BMP180;16399;51.686;8.684;2022-07-23T02:04:11;100057.00;;;16.50
29423;BMP180;16399;51.686;8.684;2022-07-23T02:07:13;100057.00;;;16.50
29423;BMP180;16399;51.686;8.684;2022-07-23T02:10:16;100065.00;;;16.60
29423;BMP180;16399;51.686;8.684;2022-07-23T02:13:18;100064.00;;;16.50
29423;BMP180;16399;51.686;8.684;2022-07-23T02:16:20;100039.00;;;16.50
29423;BMP180;16399;51.686;8.684;2022-07-23T02:19:23;100041.00;;;16.50
29423;BMP180;16399;51.686;8.684;2022-07-23T02:22:25;100060.00;;;16.40
29423;BMP180;16399;51.686;8.684;2022-07-23T02:25:27;100064.00;;;16.40
29423;BMP180;16399;51.686;8.684;2022-07-23T02:28:30;100059.00;;;16.40
29423;BMP180;16399;51.686;8.684;2022-07-23T02:31:32;100067.00;;;16.30
29423;BMP180;16399;51.686;8.684;2022-07-23T02:34:35;100043.00;;;16.30
29423;BMP180;16399;51.686;8.684;2022-07-23T02:37:37;100037.00;;;16.30
29423;BMP180;16399;51.686;8.684;2022-07-23T02:40:39;100039.00;;;16.30
29423;BMP180;16399;51.686;8.684;2022-07-23T02:43:41;100038.00;;;16.20
29423;BMP180;16399;51.686;8.684;2022-07-23T02:46:44;100027.00;;;16.20
29423;BMP180;16399;51.686;8.684;2022-07-23T02:49:46;100037.00;;;16.20
29423;BMP180;16399;51.686;8.684;2022-07-23T02:52:48;100020.00;;;16.20
29423;BMP180;16399;51.686;8.684;2022-07-23T02:55:51;100023.00;;;16.20
29423;BMP180;16399;51.686;8.684;2022-07-23T02:58:53;100024.00;;;16.10
29423;BMP180;16399;51.686;8.684;2022-07-23T03:01:55;100029.00;;;16.10
29423;BMP180;16399;51.686;8.684;2022-07-23T03:04:58;100027.00;;;16.10
29423;BMP180;16399;51.686;8.684;2022-07-23T03:08:00;100018.00;;;16.10
29423;BMP180;16399;51.686;8.684;2022-07-23T03:11:02;100018.00;;;16.00
29423;BMP180;16399;51.686;8.684;2022-07-23T03:14:05;100015.00;;;16.00
29423;BMP180;16399;51.686;8.684;2022-07-23T03:17:09;100024.00;;;16.00
29423;BMP180;16399;51.686;8.684;2022-07-23T03:20:11;100024.00;;;16.00
29423;BMP180;16399;51.686;8.684;2022-07-23T03:23:13;100022.00;;;16.00
29423;BMP180;16399;51.686;8.684;2022-07-23T03:26:16;100006.00;;;16.00
29423;BMP180;16399;51.686;8.684;2022-07-23T03:29:18;100011.00;;;16.00
29423;BMP180;16399;51.686;8.684;2022-07-23T03:32:21;99994.00;;;16.00
29423;BMP180;16399;51.686;8.684;2022-07-23T03:35:24;100005.00;;;16.00
29423;BMP180;16399;51.686;8.684;2022-07-23T03:38:26;100006.00;;;15.90
29423;BMP180;16399;51.686;8.684;2022-07-23T03:41:28;100016.00;;;15.90
29423;BMP180;16399;51.686;8.684;2022-07-23T03:44:30;100014.00;;;15.90
29423;BMP180;16399;51.686;8.684;2022-07-23T03:47:33;100014.00;;;15.80
29423;BMP180;16399;51.686;8.684;2022-07-23T03:50:35;100030.00;;;15.80
29423;BMP180;16399;51.686;8.684;2022-07-23T03:53:38;100033.00;;;15.80
29423;BMP180;16399;51.686;8.684;2022-07-23T03:56:41;100037.00;;;15.70
29423;BMP180;16399;51.686;8.684;2022-07-23T03:59:44;100035.00;;;15.70
29423;BMP180;16399;51.686;8.684;2022-07-23T04:02:46;100041.00;;;15.60
29423;BMP180;16399;51.686;8.684;2022-07-23T04:05:48;100051.00;;;15.60
29423;BMP180;16399;51.686;8.684;2022-07-23T04:08:50;100039.00;;;15.50
29423;BMP180;16399;51.686;8.684;2022-07-23T04:11:53;100044.00;;;15.50
29423;BMP180;16399;51.686;8.684;2022-07-23T04:14:55;100032.00;;;15.40
29423;BMP180;16399;51.686;8.684;2022-07-23T04:17:58;100033.00;;;15.40
29423;BMP180;16399;51.686;8.684;2022-07-23T04:21:00;100030.00;;;15.40
29423;BMP180;16399;51.686;8.684;2022-07-23T04:24:02;100033.00;;;15.40
29423;BMP180;16399;51.686;8.684;2022-07-23T04:27:05;100021.00;;;15.40
29423;BMP180;16399;51.686;8.684;2022-07-23T04:30:08;100034.00;;;15.60
29423;BMP180;16399;51.686;8.684;2022-07-23T04:33:11;100041.00;;;15.70
29423;BMP180;16399;51.686;8.684;2022-07-23T04:36:13;100040.00;;;15.90
29423;BMP180;16399;51.686;8.684;2022-07-23T04:39:15;100045.00;;;16.00
29423;BMP180;16399;51.686;8.684;2022-07-23T04:42:18;100043.00;;;16.10
29423;BMP180;16399;51.686;8.684;2022-07-23T04:45:20;100046.00;;;16.30
29423;BMP180;16399;51.686;8.684;2022-07-23T04:48:22;100045.00;;;16.50
29423;BMP180;16399;51.686;8.684;2022-07-23T04:51:25;100046.00;;;16.80
29423;BMP180;16399;51.686;8.684;2022-07-23T04:54:27;100048.00;;;17.10
29423;BMP180;16399;51.686;8.684;2022-07-23T04:57:29;100036.00;;;17.50
29423;BMP180;16399;51.686;8.684;2022-07-23T05:00:31;100045.00;;;17.90
29423;BMP180;16399;51.686;8.684;2022-07-23T05:03:34;100033.00;;;18.40
29423;BMP180;16399;51.686;8.684;2022-07-23T05:06:36;100033.00;;;18.80
29423;BMP180;16399;51.686;8.684;2022-07-23T05:09:38;100028.00;;;19.20
29423;BMP180;16399;51.686;8.684;2022-07-23T05:12:41;100034.00;;;19.40
29423;BMP180;16399;51.686;8.684;2022-07-23T05:15:44;100025.00;;;19.60
29423;BMP180;16399;51.686;8.684;2022-07-23T05:18:46;100017.00;;;19.60
29423;BMP180;16399;51.686;8.684;2022-07-23T05:21:48;100018.00;;;19.60
29423;BMP180;16399;51.686;8.684;2022-07-23T05:24:51;100021.00;;;19.70
29423;BMP180;16399;51.686;8.684;2022-07-23T05:27:53;100022.00;;;19.70
29423;BMP180;16399;51.686;8.684;2022-07-23T05:30:55;100041.00;;;19.50
29423;BMP180;16399;51.686;8.684;2022-07-23T05:33:58;100039.00;;;19.10
29423;BMP180;16399;51.686;8.684;2022-07-23T05:37:00;100048.00;;;18.70
29423;BMP180;16399;51.686;8.684;2022-07-23T05:40:04;100052.00;;;18.30
29423;BMP180;16399;51.686;8.684;2022-07-23T05:43:08;100051.00;;;18.00
29423;BMP180;16399;51.686;8.684;2022-07-23T05:46:11;100060.00;;;17.80
29423;BMP180;16399;51.686;8.684;2022-07-23T05:49:13;100058.00;;;17.60
29423;BMP180;16399;51.686;8.684;2022-07-23T05:52:15;100063.00;;;17.50
29423;BMP180;16399;51.686;8.684;2022-07-23T05:55:18;100073.00;;;17.50
29423;BMP180;16399;51.686;8.684;2022-07-23T05:58:20;100086.00;;;17.40
29423;BMP180;16399;51.686;8.684;2022-07-23T06:01:22;100082.00;;;17.40
29423;BMP180;16399;51.686;8.684;2022-07-23T06:04:24;100092.00;;;17.30
29423;BMP180;16399;51.686;8.684;2022-07-23T06:07:27;100102.00;;;17.30
29423;BMP180;16399;51.686;8.684;2022-07-23T06:10:29;100088.00;;;17.20
29423;BMP180;16399;51.686;8.684;2022-07-23T06:13:31;100095.00;;;17.10
29423;BMP180;16399;51.686;8.684;2022-07-23T06:16:34;100089.00;;;17.00
29423;BMP180;16399;51.686;8.684;2022-07-23T06:19:36;100083.00;;;17.10
29423;BMP180;16399;51.686;8.684;2022-07-23T06:22:38;100089.00;;;17.10
29423;BMP180;16399;51.686;8.684;2022-07-23T06:25:41;100089.00;;;17.30
29423;BMP180;16399;51.686;8.684;2022-07-23T06:28:43;100093.00;;;17.40
29423;BMP180;16399;51.686;8.684;2022-07-23T06:31:45;100088.00;;;17.40
29423;BMP180;16399;51.686;8.684;2022-07-23T06:34:47;100096.00;;;17.50
29423;BMP180;16399;51.686;8.684;2022-07-23T06:37:50;100096.00;;;17.50
29423;BMP180;16399;51.686;8.684;2022-07-23T06:40:52;100101.00;;;17.50
29423;BMP180;16399;51.686;8.684;2022-07-23T06:43:54;100117.00;;;17.40
29423;BMP180;16399;51.686;8.684;2022-07-23T06:46:57;100110.00;;;17.30
29423;BMP180;16399;51.686;8.684;2022-07-23T06:49:59;100114.00;;;17.30
29423;BMP180;16399;51.686;8.684;2022-07-23T06:53:01;100117.00;;;17.30
29423;BMP180;16399;51.686;8.684;2022-07-23T06:56:04;100119.00;;;17.30
29423;BMP180;16399;51.686;8.684;2022-07-23T06:59:06;100120.00;;;17.40
29423;BMP180;16399;51.686;8.684;2022-07-23T07:02:10;100127.00;;;17.50
29423;BMP180;16399;51.686;8.684;2022-07-23T07:05:12;100122.00;;;17.50
29423;BMP180;16399;51.686;8.684;2022-07-23T07:08:14;100128.00;;;17.60
29423;BMP180;16399;51.686;8.684;2022-07-23T07:11:17;100126.00;;;17.90
29423;BMP180;16399;51.686;8.684;2022-07-23T07:14:19;100135.00;;;18.10
29423;BMP180;16399;51.686;8.684;2022-07-23T07:17:21;100127.00;;;18.10
29423;BMP180;16399;51.686;8.684;2022-07-23T07:20:24;100135.00;;;18.10
29423;BMP180;16399;51.686;8.684;2022-07-23T07:23:26;100129.00;;;18.20
29423;BMP180;16399;51.686;8.684;2022-07-23T07:26:28;100129.00;;;18.30
29423;BMP180;16399;51.686;8.684;2022-07-23T07:29:32;100138.00;;;18.50
29423;BMP180;16399;51.686;8.684;2022-07-23T07:32:34;100134.00;;;18.50
29423;BMP180;16399;51.686;8.684;2022-07-23T07:35:37;100133.00;;;18.60
29423;BMP180;16399;51.686;8.684;2022-07-23T07:38:40;100126.00;;;18.70
29423;BMP180;16399;51.686;8.684;2022-07-23T07:41:42;100134.00;;;19.00
29423;BMP180;16399;51.686;8.684;2022-07-23T07:44:44;100140.00;;;19.00
29423;BMP180;16399;51.686;8.684;2022-07-23T07:47:47;100146.00;;;18.90
29423;BMP180;16399;51.686;8.684;2022-07-23T07:50:49;100146.00;;;18.90
29423;BMP180;16399;51.686;8.684;2022-07-23T07:53:52;100143.00;;;18.80
29423;BMP180;16399;51.686;8.684;2022-07-23T07:56:54;100147.00;;;19.00
29423;BMP180;16399;51.686;8.684;2022-07-23T07:59:56;100139.00;;;19.10
29423;BMP180;16399;51.686;8.684;2022-07-23T08:02:59;100147.00;;;19.20
29423;BMP180;16399;51.686;8.684;2022-07-23T08:06:01;100160.00;;;19.40
29423;BMP180;16399;51.686;8.684;2022-07-23T08:09:03;100145.00;;;19.50
29423;BMP180;16399;51.686;8.684;2022-07-23T08:12:06;100157.00;;;19.70
29423;BMP180;16399;51.686;8.684;2022-07-23T08:15:09;100154.00;;;19.90
29423;BMP180;16399;51.686;8.684;2022-07-23T08:18:11;100150.00;;;20.10
29423;BMP180;16399;51.686;8.684;2022-07-23T08:21:13;100155.00;;;20.20
29423;BMP180;16399;51.686;8.684;2022-07-23T08:24:16;100154.00;;;20.10
29423;BMP180;16399;51.686;8.684;2022-07-23T08:27:18;100148.00;;;19.90
29423;BMP180;16399;51.686;8.684;2022-07-23T08:30:20;100147.00;;;20.00
29423;BMP180;16399;51.686;8.684;2022-07-23T08:33:23;100159.00;;;20.30
29423;BMP180;16399;51.686;8.684;2022-07-23T08:36:25;100169.00;;;20.70
29423;BMP180;16399;51.686;8.684;2022-07-23T08:39:29;100159.00;;;21.00
29423;BMP180;16399;51.686;8.684;2022-07-23T08:42:32;100148.00;;;21.20
29423;BMP180;16399;51.686;8.684;2022-07-23T08:45:42;100165.00;;;21.40
29423;BMP180;16399;51.686;8.684;2022-07-23T08:48:47;100160.00;;;21.40
29423;BMP180;16399;51.686;8.684;2022-07-23T08:51:50;100161.00;;;21.60
29423;BMP180;16399;51.686;8.684;2022-07-23T08:54:54;100168.00;;;21.80
29423;BMP180;16399;51.686;8.684;2022-07-23T08:57:56;100171.00;;;21.60
29423;BMP180;16399;51.686;8.684;2022-07-23T09:01:00;100175.00;;;21.40
29423;BMP180;16399;51.686;8.684;2022-07-23T09:04:02;100196.00;;;21.10
29423;BMP180;16399;51.686;8.684;2022-07-23T09:07:05;100197.00;;;20.80
29423;BMP180;16399;51.686;8.684;2022-07-23T09:10:09;100204.00;;;20.50
29423;BMP180;16399;51.686;8.684;2022-07-23T09:16:35;100179.00;;;20.70
29423;BMP180;16399;51.686;8.684;2022-07-23T09:19:38;100178.00;;;21.20
29423;BMP180;16399;51.686;8.684;2022-07-23T09:22:45;100176.00;;;21.50
29423;BMP180;16399;51.686;8.684;2022-07-23T09:25:48;100179.00;;;21.60
29423;BMP180;16399;51.686;8.684;2022-07-23T09:29:03;100184.00;;;21.40
29423;BMP180;16399;51.686;8.684;2022-07-23T09:32:02;100186.00;;;21.20
29423;BMP180;16399;51.686;8.684;2022-07-23T09:35:06;100175.00;;;21.00
29423;BMP180;16399;51.686;8.684;2022-07-23T09:38:09;100174.00;;;21.20
29423;BMP180;16399;51.686;8.684;2022-07-23T09:41:11;100168.00;;;21.50
29423;BMP180;16399;51.686;8.684;2022-07-23T09:44:17;100161.00;;;22.00
29423;BMP180;16399;51.686;8.684;2022-07-23T09:47:20;100175.00;;;22.30
29423;BMP180;16399;51.686;8.684;2022-07-23T09:50:23;100172.00;;;22.70
29423;BMP180;16399;51.686;8.684;2022-07-23T09:53:25;100163.00;;;23.00
29423;BMP180;16399;51.686;8.684;2022-07-23T09:56:28;100162.00;;;23.30
29423;BMP180;16399;51.686;8.684;2022-07-23T09:59:37;100179.00;;;23.60
29423;BMP180;16399;51.686;8.684;2022-07-23T10:02:37;100183.00;;;23.60
29423;BMP180;16399;51.686;8.684;2022-07-23T10:05:40;100185.00;;;23.40
29423;BMP180;16399;51.686;8.684;2022-07-23T10:08:46;100198.00;;;23.00
29423;BMP180;16399;51.686;8.684;2022-07-23T10:11:51;100178.00;;;22.50
29423;BMP180;16399;51.686;8.684;2022-07-23T10:14:54;100185.00;;;22.50
29423;BMP180;16399;51.686;8.684;2022-07-23T10:17:57;100177.00;;;22.70
29423;BMP180;16399;51.686;8.684;2022-07-23T10:21:00;100182.00;;;23.00
29423;BMP180;16399;51.686;8.684;2022-07-23T10:24:12;100186.00;;;23.00
29423;BMP180;16399;51.686;8.684;2022-07-23T10:27:42;100195.00;;;23.00
29423;BMP180;16399;51.686;8.684;2022-07-23T10:31:41;100183.00;;;22.60
29423;BMP180;16399;51.686;8.684;2022-07-23T10:34:07;100177.00;;;22.40
29423;BMP180;16399;51.686;8.684;2022-07-23T10:37:16;100170.00;;;22.60
29423;BMP180;16399;51.686;8.684;2022-07-23T10:40:23;100171.00;;;22.90
29423;BMP180;16399;51.686;8.684;2022-07-23T10:43:25;100175.00;;;23.20
29423;BMP180;16399;51.686;8.684;2022-07-23T10:46:28;100188.00;;;23.20
29423;BMP180;16399;51.686;8.684;2022-07-23T10:49:34;100184.00;;;23.20
29423;BMP180;16399;51.686;8.684;2022-07-23T10:52:37;100174.00;;;23.10
29423;BMP180;16399;51.686;8.684;2022-07-23T10:55:41;100181.00;;;23.10
29423;BMP180;16399;51.686;8.684;2022-07-23T10:58:46;100177.00;;;23.40
29423;BMP180;16399;51.686;8.684;2022-07-23T11:01:50;100183.00;;;23.70
29423;BMP180;16399;51.686;8.684;2022-07-23T11:04:53;100189.00;;;23.60
29423;BMP180;16399;51.686;8.684;2022-07-23T11:11:11;100184.00;;;23.10
29423;BMP180;16399;51.686;8.684;2022-07-23T11:14:14;100181.00;;;23.20
29423;BMP180;16399;51.686;8.684;2022-07-23T11:17:20;100169.00;;;23.30
29423;BMP180;16399;51.686;8.684;2022-07-23T11:20:23;100173.00;;;23.40
29423;BMP180;16399;51.686;8.684;2022-07-23T11:23:57;100177.00;;;23.50
29423;BMP180;16399;51.686;8.684;2022-07-23T11:26:56;100178.00;;;23.70
29423;BMP180;16399;51.686;8.684;2022-07-23T11:29:54;100179.00;;;24.00
29423;BMP180;16399;51.686;8.684;2022-07-23T11:36:11;100176.00;;;24.20
29423;BMP180;16399;51.686;8.684;2022-07-23T11:39:13;100179.00;;;24.20
29423;BMP180;16399;51.686;8.684;2022-07-23T11:42:17;100167.00;;;24.20
29423;BMP180;16399;51.686;8.684;2022-07-23T11:45:20;100171.00;;;24.20
29423;BMP180;16399;51.686;8.684;2022-07-23T11:48:28;100175.00;;;24.20
29423;BMP180;16399;51.686;8.684;2022-07-23T11:51:31;100175.00;;;24.20
29423;BMP180;16399;51.686;8.684;2022-07-23T11:54:35;100182.00;;;24.10
29423;BMP180;16399;51.686;8.684;2022-07-23T11:57:40;100183.00;;;24.00
29423;BMP180;16399;51.686;8.684;2022-07-23T12:00:43;100175.00;;;23.90
29423;BMP180;16399;51.686;8.684;2022-07-23T12:03:54;100181.00;;;24.00
29423;BMP180;16399;51.686;8.684;2022-07-23T12:06:53;100175.00;;;24.10
29423;BMP180;16399;51.686;8.684;2022-07-23T12:09:57;100181.00;;;24.40
29423;BMP180;16399;51.686;8.684;2022-07-23T12:13:02;100176.00;;;24.50
29423;BMP180;16399;51.686;8.684;2022-07-23T12:16:04;100169.00;;;24.40
29423;BMP180;16399;51.686;8.684;2022-07-23T12:19:06;100173.00;;;24.40
29423;BMP180;16399;51.686;8.684;2022-07-23T12:22:09;100166.00;;;24.30
29423;BMP180;16399;51.686;8.684;2022-07-23T12:25:14;100173.00;;;24.20
29423;BMP180;16399;51.686;8.684;2022-07-23T12:28:27;100171.00;;;24.30
29423;BMP180;16399;51.686;8.684;2022-07-23T12:31:30;100178.00;;;24.30
29423;BMP180;16399;51.686;8.684;2022-07-23T12:34:32;100183.00;;;24.30
29423;BMP180;16399;51.686;8.684;2022-07-23T12:37:37;100178.00;;;24.20
29423;BMP180;16399;51.686;8.684;2022-07-23T12:40:46;100182.00;;;24.00
29423;BMP180;16399;51.686;8.684;2022-07-23T12:43:48;100179.00;;;24.00
29423;BMP180;16399;51.686;8.684;2022-07-23T12:46:52;100179.00;;;24.00
29423;BMP180;16399;51.686;8.684;2022-07-23T12:49:54;100179.00;;;24.00
29423;BMP180;16399;51.686;8.684;2022-07-23T12:53:08;100182.00;;;24.00
29423;BMP180;16399;51.686;8.684;2022-07-23T12:56:13;100183.00;;;24.00
29423;BMP180;16399;51.686;8.684;2022-07-23T12:59:16;100188.00;;;24.00
29423;BMP180;16399;51.686;8.684;2022-07-23T13:02:20;100192.00;;;24.00
29423;BMP180;16399;51.686;8.684;2022-07-23T13:05:22;100190.00;;;24.00
29423;BMP180;16399;51.686;8.684;2022-07-23T13:08:27;100187.00;;;23.90
29423;BMP180;16399;51.686;8.684;2022-07-23T13:11:30;100193.00;;;23.90
29423;BMP180;16399;51.686;8.684;2022-07-23T13:14:32;100193.00;;;23.90
29423;BMP180;16399;51.686;8.684;2022-07-23T13:17:35;100186.00;;;23.90
29423;BMP180;16399;51.686;8.684;2022-07-23T13:20:37;100188.00;;;23.80
29423;BMP180;16399;51.686;8.684;2022-07-23T13:23:40;100191.00;;;23.70
29423;BMP180;16399;51.686;8.684;2022-07-23T13:26:43;100186.00;;;23.50
29423;BMP180;16399;51.686;8.684;2022-07-23T13:29:47;100192.00;;;23.50
29423;BMP180;16399;51.686;8.684;2022-07-23T13:32:50;100184.00;;;23.50
29423;BMP180;16399;51.686;8.684;2022-07-23T13:35:53;100186.00;;;23.60
29423;BMP180;16399;51.686;8.684;2022-07-23T13:38:55;100179.00;;;23.80
29423;BMP180;16399;51.686;8.684;2022-07-23T13:41:57;100182.00;;;23.90
29423;BMP180;16399;51.686;8.684;2022-07-23T13:45:00;100176.00;;;23.90
29423;BMP180;16399;51.686;8.684;2022-07-23T13:48:02;100189.00;;;24.00
29423;BMP180;16399;51.686;8.684;2022-07-23T13:51:05;100192.00;;;23.90
29423;BMP180;16399;51.686;8.684;2022-07-23T13:54:07;100187.00;;;24.00
29423;BMP180;16399;51.686;8.684;2022-07-23T13:57:09;100187.00;;;24.00
29423;BMP180;16399;51.686;8.684;2022-07-23T14:00:12;100188.00;;;24.00
29423;BMP180;16399;51.686;8.684;2022-07-23T14:03:15;100194.00;;;24.00
29423;BMP180;16399;51.686;8.684;2022-07-23T14:06:17;100183.00;;;23.90
29423;BMP180;16399;51.686;8.684;2022-07-23T14:09:19;100177.00;;;23.90
29423;BMP180;16399;51.686;8.684;2022-07-23T14:12:22;100187.00;;;23.90
29423;BMP180;16399;51.686;8.684;2022-07-23T14:15:26;100184.00;;;24.00
29423;BMP180;16399;51.686;8.684;2022-07-23T14:18:28;100197.00;;;24.10
29423;BMP180;16399;51.686;8.684;2022-07-23T14:21:30;100172.00;;;24.10
29423;BMP180;16399;51.686;8.684;2022-07-23T14:24:33;100189.00;;;24.10
29423;BMP180;16399;51.686;8.684;2022-07-23T14:27:35;100185.00;;;24.10
29423;BMP180;16399;51.686;8.684;2022-07-23T14:30:38;100180.00;;;24.00
29423;BMP180;16399;51.686;8.684;2022-07-23T14:33:41;100194.00;;;24.10
29423;BMP180;16399;51.686;8.684;2022-07-23T14:36:43;100198.00;;;24.10
29423;BMP180;16399;51.686;8.684;2022-07-23T14:39:46;100197.00;;;24.10
29423;BMP180;16399;51.686;8.684;2022-07-23T14:42:49;100195.00;;;24.20
29423;BMP180;16399;51.686;8.684;2022-07-23T14:45:51;100194.00;;;24.20
29423;BMP180;16399;51.686;8.684;2022-07-23T14:48:53;100204.00;;;24.20
29423;BMP180;16399;51.686;8.684;2022-07-23T14:51:56;100204.00;;;24.20
29423;BMP180;16399;51.686;8.684;2022-07-23T14:54:58;100200.00;;;24.20
29423;BMP180;16399;51.686;8.684;2022-07-23T14:58:00;100193.00;;;24.20
29423;BMP180;16399;51.686;8.684;2022-07-23T15:01:03;100188.00;;;24.20
29423;BMP180;16399;51.686;8.684;2022-07-23T15:04:06;100195.00;;;24.20
29423;BMP180;16399;51.686;8.684;2022-07-23T15:07:08;100198.00;;;24.20
29423;BMP180;16399;51.686;8.684;2022-07-23T15:10:11;100186.00;;;24.20
29423;BMP180;16399;51.686;8.684;2022-07-23T15:13:13;100193.00;;;24.20
29423;BMP180;16399;51.686;8.684;2022-07-23T15:16:16;100192.00;;;24.20
29423;BMP180;16399;51.686;8.684;2022-07-23T15:19:18;100188.00;;;24.10
29423;BMP180;16399;51.686;8.684;2022-07-23T15:22:20;100179.00;;;24.10
29423;BMP180;16399;51.686;8.684;2022-07-23T15:25:23;100182.00;;;24.20
29423;BMP180;16399;51.686;8.684;2022-07-23T15:28:25;100195.00;;;24.20
29423;BMP180;16399;51.686;8.684;2022-07-23T15:31:28;100194.00;;;24.30
29423;BMP180;16399;51.686;8.684;2022-07-23T15:34:30;100187.00;;;24.30
29423;BMP180;16399;51.686;8.684;2022-07-23T15:37:34;100179.00;;;24.40
29423;BMP180;16399;51.686;8.684;2022-07-23T15:40:36;100182.00;;;24.40
29423;BMP180;16399;51.686;8.684;2022-07-23T15:43:38;100164.00;;;24.40
29423;BMP180;16399;51.686;8.684;2022-07-23T15:46:41;100182.00;;;24.30
29423;BMP180;16399;51.686;8.684;2022-07-23T15:49:44;100170.00;;;24.30
29423;BMP180;16399;51.686;8.684;2022-07-23T15:52:47;100178.00;;;24.20
29423;BMP180;16399;51.686;8.684;2022-07-23T15:55:49;100175.00;;;24.00
29423;BMP180;16399;51.686;8.684;2022-07-23T15:58:52;100167.00;;;24.00
29423;BMP180;16399;51.686;8.684;2022-07-23T16:01:54;100167.00;;;24.00
29423;BMP180;16399;51.686;8.684;2022-07-23T16:04:56;100165.00;;;24.00
29423;BMP180;16399;51.686;8.684;2022-07-23T16:08:01;100168.00;;;24.00
29423;BMP180;16399;51.686;8.684;2022-07-23T16:11:03;100168.00;;;24.00
29423;BMP180;16399;51.686;8.684;2022-07-23T16:14:05;100165.00;;;24.00
29423;BMP180;16399;51.686;8.684;2022-07-23T16:17:08;100171.00;;;24.00
29423;BMP180;16399;51.686;8.684;2022-07-23T16:20:11;100166.00;;;23.90
29423;BMP180;16399;51.686;8.684;2022-07-23T16:23:13;100166.00;;;23.90
29423;BMP180;16399;51.686;8.684;2022-07-23T16:26:16;100164.00;;;23.90
29423;BMP180;16399;51.686;8.684;2022-07-23T16:29:21;100163.00;;;23.80
29423;BMP180;16399;51.686;8.684;2022-07-23T16:32:23;100162.00;;;23.80
29423;BMP180;16399;51.686;8.684;2022-07-23T16:35:25;100171.00;;;23.80
29423;BMP180;16399;51.686;8.684;2022-07-23T16:38:27;100164.00;;;23.80
29423;BMP180;16399;51.686;8.684;2022-07-23T16:41:30;100175.00;;;23.80
29423;BMP180;16399;51.686;8.684;2022-07-23T16:44:32;100173.00;;;23.80
29423;BMP180;16399;51.686;8.684;2022-07-23T16:47:35;100170.00;;;23.80
29423;BMP180;16399;51.686;8.684;2022-07-23T16:50:38;100170.00;;;23.70
29423;BMP180;16399;51.686;8.684;2022-07-23T16:53:40;100163.00;;;23.70
29423;BMP180;16399;51.686;8.684;2022-07-23T16:56:43;100160.00;;;23.60
29423;BMP180;16399;51.686;8.684;2022-07-23T16:59:45;100178.00;;;23.60
29423;BMP180;16399;51.686;8.684;2022-07-23T17:02:47;100179.00;;;23.50
29423;BMP180;16399;51.686;8.684;2022-07-23T17:05:50;100178.00;;;23.50
29423;BMP180;16399;51.686;8.684;2022-07-23T17:08:52;100186.00;;;23.50
29423;BMP180;16399;51.686;8.684;2022-07-23T17:11:55;100188.00;;;23.40
29423;BMP180;16399;51.686;8.684;2022-07-23T17:14:57;100192.00;;;23.30
29423;BMP180;16399;51.686;8.684;2022-07-23T17:18:00;100189.00;;;23.20
29423;BMP180;16399;51.686;8.684;2022-07-23T17:21:02;100188.00;;;23.10
29423;BMP180;16399;51.686;8.684;2022-07-23T17:24:05;100205.00;;;23.10
29423;BMP180;16399;51.686;8.684;2022-07-23T17:27:07;100191.00;;;23.10
29423;BMP180;16399;51.686;8.684;2022-07-23T17:30:11;100200.00;;;23.10